Time;durP1;ratioP1;P1;durP2;ratioP2;P2;SDS_P1;SDS_P2;PMS_P1;PMS_P2;Temp;Humidity;BMP_temperature;BMP_pressure;BME280_temperature;BME280_humidity;BME280_pressure;Samples;Min_cycle;Max_cycle;Signal;HPM_P1;HPM_P2
2022/04/24 00:02:05;;;;;;;5.55;3.45;;;;;;;15.75;37.26;100203.25;4973101;28;123998;-77
2022/04/24 00:04:33;;;;;;;4.50;3.58;;;;;;;15.72;37.09;100198.13;4970537;28;124433;-77
2022/04/24 00:07:00;;;;;;;5.20;3.72;;;;;;;15.68;37.39;100202.00;4983382;28;118697;-78
2022/04/24 00:09:28;;;;;;;4.72;3.47;;;;;;;15.64;37.45;100195.19;4988096;28;119525;-78
2022/04/24 00:11:57;;;;;;;5.53;3.85;;;;;;;15.62;37.51;100202.47;4972126;28;123404;-78
2022/04/24 00:14:25;;;;;;;4.45;3.60;;;;;;;15.61;37.71;100195.41;4974687;28;124567;-77
2022/04/24 00:16:52;;;;;;;5.95;3.90;;;;;;;15.60;37.69;100196.41;4972220;28;118617;-77
2022/04/24 00:19:19;;;;;;;4.82;3.67;;;;;;;15.58;37.83;100195.69;4973193;28;119463;-78
2022/04/24 00:21:46;;;;;;;6.18;4.10;;;;;;;15.58;37.70;100190.34;4974344;28;123935;-78
2022/04/24 00:24:14;;;;;;;5.75;3.80;;;;;;;15.58;37.86;100190.34;4996323;28;123133;-78
2022/04/24 00:26:41;;;;;;;5.50;3.60;;;;;;;15.58;37.63;100190.34;4977603;28;119520;-78
2022/04/24 00:29:08;;;;;;;5.93;3.85;;;;;;;15.57;37.79;100183.28;4990344;28;118919;-78
2022/04/24 00:31:35;;;;;;;5.47;3.83;;;;;;;15.57;37.64;100177.94;4974037;28;123753;-78
2022/04/24 00:34:02;;;;;;;5.03;3.60;;;;;;;15.57;37.72;100177.94;4969118;28;123170;-77
2022/04/24 00:36:29;;;;;;;4.55;3.85;;;;;;;15.56;37.91;100181.59;4973678;28;118927;-77
2022/04/24 00:38:56;;;;;;;10.82;4.30;;;;;;;15.56;37.76;100176.25;4967600;28;118910;-78
2022/04/24 00:41:23;;;;;;;5.70;4.03;;;;;;;15.57;37.83;100172.59;4974736;28;124293;-77
2022/04/24 00:43:54;;;;;;;5.38;3.95;;;;;;;15.56;37.79;100173.59;4975736;28;123947;-77
2022/04/24 00:46:41;;;;;;;4.70;3.72;;;;;;;15.52;37.85;100164.97;4971643;28;120954;-77
2022/04/24 00:49:10;;;;;;;4.43;3.67;;;;;;;15.51;37.97;100173.09;4970588;28;119730;-77
2022/04/24 00:51:38;;;;;;;4.55;3.67;;;;;;;15.48;37.97;100167.97;4971913;28;124361;-78
2022/04/24 00:54:07;;;;;;;6.50;4.35;;;;;;;15.45;37.91;100173.56;4972891;28;123806;-78
2022/04/24 00:56:36;;;;;;;4.82;3.50;;;;;;;15.43;37.89;100171.00;4974992;28;119611;-78
2022/04/24 00:59:06;;;;;;;5.97;3.75;;;;;;;15.41;37.89;100172.06;4968658;28;118948;-78
2022/04/24 01:01:34;;;;;;;5.45;3.95;;;;;;;15.36;38.02;100173.28;4976336;28;125479;-78
2022/04/24 01:04:04;;;;;;;4.75;3.80;;;;;;;15.33;38.03;100170.84;4986788;28;123220;-77
2022/04/24 01:06:42;;;;;;;5.70;4.18;;;;;;;15.29;38.00;100169.38;4973729;28;119346;-78
2022/04/24 01:09:15;;;;;;;6.22;4.20;;;;;;;15.25;38.06;100173.22;4976176;28;118846;-78
2022/04/24 01:11:43;;;;;;;5.35;4.03;;;;;;;15.19;38.17;100168.38;4967628;28;123053;-78
2022/04/24 01:14:11;;;;;;;6.68;4.60;;;;;;;15.14;38.25;100175.84;4970076;28;123629;-78
2022/04/24 01:16:38;;;;;;;6.28;4.35;;;;;;;15.09;38.30;100178.03;4976209;28;120083;-77
2022/04/24 01:19:06;;;;;;;6.20;4.13;;;;;;;15.04;38.52;100180.19;4976652;28;117679;-78
2022/04/24 01:21:33;;;;;;;6.45;4.00;;;;;;;14.97;38.46;100183.31;4973461;28;124716;-77
2022/04/24 01:24:04;;;;;;;6.13;4.32;;;;;;;14.92;38.68;100177.47;4975156;28;124067;-77
2022/04/24 01:26:31;;;;;;;5.93;4.47;;;;;;;14.88;38.63;100181.34;4979666;28;118741;-78
2022/04/24 01:28:58;;;;;;;6.70;4.65;;;;;;;14.85;38.64;100175.38;4994725;28;118165;-78
2022/04/24 01:31:25;;;;;;;5.60;4.20;;;;;;;14.81;38.81;100173.91;4983734;28;124728;-78
2022/04/24 01:33:52;;;;;;;6.32;4.30;;;;;;;14.78;38.71;100174.97;4984219;28;123673;-77
2022/04/24 01:36:19;;;;;;;5.72;4.20;;;;;;;14.73;38.77;100182.44;4984807;28;120059;-78
2022/04/24 01:38:47;;;;;;;6.15;4.40;;;;;;;14.70;38.82;100172.00;4981585;28;120271;-78
2022/04/24 01:41:14;;;;;;;7.28;4.85;;;;;;;14.64;38.88;100165.31;4980320;28;123533;-77
2022/04/24 01:43:42;;;;;;;5.43;4.22;;;;;;;14.60;38.96;100178.00;4975418;28;126049;-78
2022/04/24 01:46:09;;;;;;;5.55;4.38;;;;;;;14.56;39.06;100181.84;4983317;28;119319;-78
2022/04/24 01:48:37;;;;;;;7.22;4.72;;;;;;;14.53;38.98;100182.03;4972697;28;117801;-77
2022/04/24 01:51:06;;;;;;;7.32;4.50;;;;;;;14.49;39.11;100180.56;4970023;28;123332;-77
2022/04/24 01:53:36;;;;;;;5.47;4.45;;;;;;;14.44;39.43;100177.38;4972594;28;124491;-78
2022/04/24 01:56:05;;;;;;;7.28;5.00;;;;;;;14.40;39.24;100176.75;4977936;28;119583;-77
2022/04/24 01:58:33;;;;;;;6.40;4.82;;;;;;;14.36;39.44;100180.59;4993079;28;117761;-77
2022/04/24 02:01:01;;;;;;;6.60;5.30;;;;;;;14.32;39.63;100178.28;4974959;28;123969;-78
2022/04/24 02:03:34;;;;;;;6.50;4.88;;;;;;;14.28;39.55;100182.09;4967744;28;124467;-77
2022/04/24 02:06:03;;;;;;;6.20;5.10;;;;;;;14.23;39.78;100176.25;4982100;28;118841;-77
2022/04/24 02:08:31;;;;;;;7.80;5.40;;;;;;;14.19;39.67;100179.13;4993065;28;119191;-78
2022/04/24 02:10:59;;;;;;;6.65;5.25;;;;;;;14.15;39.83;100172.31;4973367;28;123948;-77
2022/04/24 02:13:26;;;;;;;6.55;5.10;;;;;;;14.12;39.97;100180.53;4981474;28;123864;-79
2022/04/24 02:15:53;;;;;;;7.55;4.93;;;;;;;14.08;40.01;100181.69;4981483;28;119265;-78
2022/04/24 02:18:20;;;;;;;7.78;5.40;;;;;;;14.05;40.24;100181.06;5001954;28;118897;-77
2022/04/24 02:20:47;;;;;;;6.57;4.82;;;;;;;14.01;40.22;100180.41;4993498;28;124792;-78
2022/04/24 02:23:14;;;;;;;6.35;5.03;;;;;;;13.98;40.25;100180.66;4977030;28;123078;-77
2022/04/24 02:25:41;;;;;;;7.13;5.55;;;;;;;13.97;40.46;100173.63;4986038;28;119461;-78
2022/04/24 02:28:08;;;;;;;8.13;5.70;;;;;;;13.94;40.31;100179.16;4975824;28;119033;-77
2022/04/24 02:30:35;;;;;;;7.38;5.28;;;;;;;13.93;40.50;100188.09;4975096;28;123776;-77
2022/04/24 02:33:03;;;;;;;7.63;5.40;;;;;;;13.90;40.36;100182.97;4969222;28;123890;-78
2022/04/24 02:35:30;;;;;;;7.78;5.47;;;;;;;13.86;40.46;100176.19;4976216;28;119613;-78
2022/04/24 02:37:57;;;;;;;7.90;5.75;;;;;;;13.82;40.47;100176.41;4981034;28;119296;-78
2022/04/24 02:40:25;;;;;;;7.75;5.63;;;;;;;13.80;40.71;100183.63;4994161;28;124004;-77
2022/04/24 02:42:52;;;;;;;7.78;5.45;;;;;;;13.77;40.49;100183.00;4972500;28;123853;-78
2022/04/24 02:45:20;;;;;;;7.00;5.05;;;;;;;13.72;40.62;100180.66;4985802;28;118958;-78
2022/04/24 02:47:47;;;;;;;7.82;5.47;;;;;;;13.68;40.80;100184.47;4977704;28;118946;-77
2022/04/24 02:50:15;;;;;;;8.40;6.15;;;;;;;13.64;40.65;100185.66;4977388;28;123652;-78
2022/04/24 02:52:53;;;;;;;8.25;5.90;;;;;;;13.61;40.87;100193.84;4980103;28;122762;-77
2022/04/24 02:55:22;;;;;;;8.77;5.05;;;;;;;13.58;40.90;100188.72;4974883;28;118211;-77
2022/04/24 02:57:49;;;;;;;8.93;5.93;;;;;;;13.52;40.95;100194.47;4987879;28;119803;-77
2022/04/24 03:00:21;;;;;;;8.65;6.15;;;;;;;13.48;41.26;100192.97;4976959;28;124057;-78
2022/04/24 03:02:49;;;;;;;8.93;6.05;;;;;;;13.42;41.34;100188.91;4949603;28;123846;-77
2022/04/24 03:05:18;;;;;;;10.25;6.15;;;;;;;13.38;41.12;100188.25;4989750;28;118476;-78
2022/04/24 03:07:46;;;;;;;8.18;5.68;;;;;;;13.35;41.51;100192.94;4973731;28;119062;-77
2022/04/24 03:10:14;;;;;;;8.85;5.82;;;;;;;13.30;41.68;100190.59;4971843;28;124147;-77
2022/04/24 03:12:42;;;;;;;7.68;5.75;;;;;;;13.25;41.50;100188.19;4972478;28;123633;-77
2022/04/24 03:15:10;;;;;;;9.48;5.90;;;;;;;13.23;41.89;100183.94;4977016;28;120500;-78
2022/04/24 03:17:38;;;;;;;9.02;5.97;;;;;;;13.20;41.68;100176.16;4957238;28;119425;-77
2022/04/24 03:20:07;;;;;;;8.18;6.05;;;;;;;13.17;41.93;100179.03;4976622;28;124140;-78
2022/04/24 03:22:35;;;;;;;7.53;6.10;;;;;;;13.14;42.15;100189.88;4972542;28;124068;-77
2022/04/24 03:25:05;;;;;;;8.15;6.28;;;;;;;13.11;42.13;100190.06;4969507;28;119303;-78
2022/04/24 03:27:33;;;;;;;8.82;6.05;;;;;;;13.05;42.42;100192.19;4975698;28;118611;-78
2022/04/24 03:30:01;;;;;;;9.38;6.53;;;;;;;13.00;42.45;100188.97;4968599;28;124839;-77
2022/04/24 03:32:32;;;;;;;8.75;5.93;;;;;;;12.95;42.62;100191.06;4980662;28;123767;-78
2022/04/24 03:34:59;;;;;;;9.88;6.30;;;;;;;12.91;42.82;100200.22;4977126;28;118986;-78
2022/04/24 03:37:26;;;;;;;11.30;6.20;;;;;;;12.88;42.86;100195.09;4989950;28;118895;-77
2022/04/24 03:39:54;;;;;;;11.35;6.00;;;;;;;12.83;42.90;100198.06;4972749;28;123767;-78
2022/04/24 03:42:21;;;;;;;9.48;6.00;;;;;;;12.80;43.05;100198.25;4972502;28;124526;-77
2022/04/24 03:44:48;;;;;;;7.55;5.97;;;;;;;12.78;43.25;100199.31;4973504;28;119609;-77
2022/04/24 03:47:16;;;;;;;10.77;6.15;;;;;;;12.75;43.37;100194.19;4977880;28;118368;-77
2022/04/24 03:49:43;;;;;;;8.73;6.22;;;;;;;12.72;43.44;100199.72;4977317;28;126265;-78
2022/04/24 03:52:11;;;;;;;7.93;5.45;;;;;;;12.70;43.63;100190.97;4976241;28;124393;-77
2022/04/24 03:54:38;;;;;;;7.28;5.15;;;;;;;12.66;43.69;100188.50;4998163;28;119288;-78
2022/04/24 03:57:07;;;;;;;8.80;6.22;;;;;;;12.64;43.58;100190.41;4978799;28;119068;-77
2022/04/24 03:59:34;;;;;;;9.25;6.20;;;;;;;12.61;43.96;100193.25;4970299;28;123858;-77
2022/04/24 04:02:02;;;;;;;8.52;5.80;;;;;;;12.59;44.04;100195.16;4968271;28;123614;-77
2022/04/24 04:04:29;;;;;;;8.57;5.57;;;;;;;12.56;44.13;100198.00;4966967;28;118964;-78
2022/04/24 04:06:57;;;;;;;7.85;5.50;;;;;;;12.56;44.28;100200.66;4988965;28;119220;-78
2022/04/24 04:09:24;;;;;;;8.57;5.80;;;;;;;12.52;44.15;100193.84;4971246;28;123974;-77
2022/04/24 04:11:51;;;;;;;7.65;5.80;;;;;;;12.50;44.25;100195.75;4970645;28;124750;-78
2022/04/24 04:14:18;;;;;;;9.25;5.75;;;;;;;12.49;44.08;100194.06;4980207;28;118826;-78
2022/04/24 04:16:45;;;;;;;8.27;5.38;;;;;;;12.47;44.40;100201.28;4987259;28;119649;-78
2022/04/24 04:19:12;;;;;;;7.05;5.18;;;;;;;12.46;44.20;100194.25;4977244;28;123837;-76
2022/04/24 04:21:39;;;;;;;7.90;5.65;;;;;;;12.43;44.41;100194.44;4957970;28;122907;-76
2022/04/24 04:24:08;;;;;;;9.63;5.47;;;;;;;12.44;44.49;100196.16;4978123;28;119782;-76
2022/04/24 04:26:36;;;;;;;7.22;5.72;;;;;;;12.42;44.64;100193.59;4954682;28;118571;-76
2022/04/24 04:29:03;;;;;;;7.68;5.40;;;;;;;12.41;44.58;100194.56;4989248;28;126210;-76
2022/04/24 04:31:30;;;;;;;8.00;5.75;;;;;;;12.40;44.72;100194.63;4971713;28;122870;-76
2022/04/24 04:33:57;;;;;;;7.30;5.25;;;;;;;12.38;44.81;100191.22;4981668;28;119649;-76
2022/04/24 04:36:24;;;;;;;10.50;5.20;;;;;;;12.35;45.03;100202.03;4968511;28;120337;-76
2022/04/24 04:38:52;;;;;;;9.35;5.97;;;;;;;12.34;44.92;100205.63;4972490;28;122925;-76
2022/04/24 04:41:19;;;;;;;9.25;5.85;;;;;;;12.32;45.11;100215.50;4986377;28;124143;-77
2022/04/24 04:43:46;;;;;;;8.48;5.43;;;;;;;12.31;44.98;100205.84;4990190;28;118816;-76
2022/04/24 04:46:13;;;;;;;8.35;5.47;;;;;;;12.30;45.10;100209.44;4980511;28;118917;-76
2022/04/24 04:48:40;;;;;;;6.60;4.78;;;;;;;12.30;45.17;100214.72;4957356;28;123397;-76
2022/04/24 04:51:07;;;;;;;7.72;5.55;;;;;;;12.29;45.09;100221.84;4976587;28;122793;-77
2022/04/24 04:53:34;;;;;;;7.47;5.10;;;;;;;12.29;44.88;100213.03;4995743;28;120262;-76
2022/04/24 04:56:02;;;;;;;6.85;4.70;;;;;;;12.27;45.19;100221.94;4970571;28;119823;-76
2022/04/24 04:58:29;;;;;;;9.38;5.32;;;;;;;12.28;45.10;100233.41;4976251;28;124116;-76
2022/04/24 05:00:56;;;;;;;7.57;5.20;;;;;;;12.27;45.39;100235.22;4977493;28;123566;-76
2022/04/24 05:03:23;;;;;;;8.50;5.28;;;;;;;12.27;45.15;100232.56;4977416;28;118936;-76
2022/04/24 05:05:50;;;;;;;8.07;5.03;;;;;;;12.26;45.54;100241.50;4986183;28;118299;-76
2022/04/24 05:08:17;;;;;;;7.22;4.80;;;;;;;12.29;45.46;100239.59;4986858;28;122226;-77
2022/04/24 05:10:44;;;;;;;7.22;4.80;;;;;;;12.30;45.34;100246.59;4980489;28;123195;-76
2022/04/24 05:13:12;;;;;;;8.07;4.60;;;;;;;12.29;45.90;100250.22;4974905;28;119878;-76
2022/04/24 05:15:39;;;;;;;7.25;4.88;;;;;;;12.30;45.59;100257.22;4974245;28;117744;-76
2022/04/24 05:18:06;;;;;;;8.38;5.03;;;;;;;12.31;45.64;100253.63;4976898;28;124469;-76
2022/04/24 05:20:33;;;;;;;8.15;4.78;;;;;;;12.34;45.62;100264.03;4957109;28;123442;-76
2022/04/24 05:23:07;;;;;;;6.40;4.50;;;;;;;12.34;45.34;100269.34;4971552;28;118909;-77
2022/04/24 05:25:35;;;;;;;7.45;4.75;;;;;;;12.38;45.50;100270.91;4975719;28;118253;-76
2022/04/24 05:28:04;;;;;;;7.10;5.13;;;;;;;12.39;45.51;100275.25;4973448;28;123901;-76
2022/04/24 05:30:32;;;;;;;7.72;4.57;;;;;;;12.42;45.53;100272.41;4957186;28;123062;-76
2022/04/24 05:32:59;;;;;;;6.00;4.72;;;;;;;12.43;45.65;100274.09;4972119;28;119329;-76
2022/04/24 05:35:26;;;;;;;7.57;5.05;;;;;;;12.46;45.47;100268.59;4974952;28;119920;-77
2022/04/24 05:37:53;;;;;;;7.68;4.75;;;;;;;12.48;45.65;100271.19;4975204;28;123087;-76
2022/04/24 05:40:21;;;;;;;7.22;4.40;;;;;;;12.51;45.38;100271.84;4974178;28;124846;-77
2022/04/24 05:42:51;;;;;;;7.30;4.38;;;;;;;12.52;45.49;100273.53;4956548;28;119194;-76
2022/04/24 05:45:22;;;;;;;9.18;4.72;;;;;;;12.56;45.56;100269.72;4976556;28;121327;-76
2022/04/24 05:47:49;;;;;;;7.13;4.57;;;;;;;12.61;45.50;100267.66;4969206;28;123912;-77
2022/04/24 05:50:17;;;;;;;6.85;4.60;;;;;;;12.65;45.57;100279.78;4988169;28;123700;-76
2022/04/24 05:52:44;;;;;;;9.50;4.80;;;;;;;12.69;45.49;100274.28;4978810;28;119193;-76
2022/04/24 05:55:12;;;;;;;7.47;4.75;;;;;;;12.74;45.38;100277.50;4988058;28;118960;-76
2022/04/24 05:57:39;;;;;;;6.80;5.05;;;;;;;12.77;45.21;100277.31;4977457;28;123950;-77
2022/04/24 06:00:08;;;;;;;7.55;4.78;;;;;;;12.81;45.26;100273.53;4971035;28;123403;-76
2022/04/24 06:02:39;;;;;;;6.28;4.47;;;;;;;12.86;45.23;100276.72;4976648;28;119983;-76
2022/04/24 06:05:08;;;;;;;6.28;4.50;;;;;;;12.89;45.20;100281.84;4972833;28;119236;-76
2022/04/24 06:07:35;;;;;;;6.80;4.75;;;;;;;12.94;45.18;100282.41;4981666;28;124494;-76
2022/04/24 06:10:03;;;;;;;6.20;4.30;;;;;;;12.98;45.56;100285.75;4976202;28;123755;-77
2022/04/24 06:12:30;;;;;;;6.13;4.70;;;;;;;13.03;45.23;100284.50;4986491;28;117459;-77
2022/04/24 06:15:04;;;;;;;7.88;4.68;;;;;;;13.09;45.12;100287.69;4977441;28;118691;-77
2022/04/24 06:17:31;;;;;;;7.32;4.80;;;;;;;13.12;45.27;100290.16;4974573;28;124360;-77
2022/04/24 06:19:58;;;;;;;7.07;4.32;;;;;;;13.18;45.29;100287.09;4970036;28;122635;-77
2022/04/24 06:22:26;;;;;;;8.27;4.32;;;;;;;13.24;45.01;100281.38;4985928;28;118521;-77
2022/04/24 06:24:53;;;;;;;8.95;4.40;;;;;;;13.31;45.03;100282.72;4971134;28;118960;-77
2022/04/24 06:27:20;;;;;;;5.28;4.13;;;;;;;13.38;45.04;100278.69;4970257;28;124814;-77
2022/04/24 06:29:47;;;;;;;6.20;4.72;;;;;;;13.45;44.98;100279.16;4985213;28;124653;-77
2022/04/24 06:32:14;;;;;;;7.30;4.82;;;;;;;13.53;44.70;100281.31;4969807;28;119608;-77
2022/04/24 06:34:41;;;;;;;8.32;4.45;;;;;;;13.61;44.84;100278.97;4968781;28;119991;-76
2022/04/24 06:37:09;;;;;;;7.00;4.45;;;;;;;13.69;44.70;100287.28;4982666;28;123859;-77
2022/04/24 06:39:36;;;;;;;5.53;4.03;;;;;;;13.78;44.48;100281.34;4966103;28;124616;-78
2022/04/24 06:42:03;;;;;;;9.40;4.75;;;;;;;13.88;44.37;100280.72;4967604;28;121566;-78
2022/04/24 06:44:34;;;;;;;6.15;4.57;;;;;;;13.97;44.29;100280.09;4967265;28;119086;-78
2022/04/24 06:47:01;;;;;;;7.57;4.65;;;;;;;14.06;44.13;100284.81;4983057;28;123629;-78
2022/04/24 06:49:28;;;;;;;8.85;4.50;;;;;;;14.18;44.05;100283.97;4969687;28;122705;-77
2022/04/24 06:51:55;;;;;;;6.97;4.63;;;;;;;14.29;44.08;100290.34;4985202;28;118518;-77
2022/04/24 06:54:22;;;;;;;5.90;4.38;;;;;;;14.42;43.88;100291.19;4985810;28;119408;-78
2022/04/24 06:56:49;;;;;;;7.88;4.30;;;;;;;14.54;43.71;100294.81;4972876;28;124077;-77
2022/04/24 06:59:16;;;;;;;6.70;4.68;;;;;;;14.66;43.50;100291.31;4985449;28;123355;-78
2022/04/24 07:01:44;;;;;;;7.00;4.18;;;;;;;14.79;43.29;100296.63;4966892;28;118293;-78
2022/04/24 07:04:11;;;;;;;7.35;4.70;;;;;;;14.90;43.07;100307.38;4986591;28;117951;-78
2022/04/24 07:06:38;;;;;;;5.25;4.13;;;;;;;15.02;42.91;100299.47;5004073;28;123287;-77
2022/04/24 07:09:05;;;;;;;5.80;4.15;;;;;;;15.14;42.98;100299.44;4980089;28;123184;-78
2022/04/24 07:11:33;;;;;;;6.53;4.20;;;;;;;15.28;42.76;100301.06;4974374;28;120020;-77
2022/04/24 07:14:01;;;;;;;7.00;4.60;;;;;;;15.43;42.57;100298.25;4985757;28;119916;-77
2022/04/24 07:16:28;;;;;;;8.00;4.78;;;;;;;15.55;42.21;100303.50;4969460;28;124846;-77
2022/04/24 07:18:55;;;;;;;5.80;4.45;;;;;;;15.67;42.48;100299.09;4967534;28;122829;-77
2022/04/24 07:21:22;;;;;;;6.18;4.13;;;;;;;15.78;41.72;100303.63;4967843;28;120781;-78
2022/04/24 07:23:54;;;;;;;5.90;4.55;;;;;;;15.88;41.58;100304.66;4967423;28;120245;-78
2022/04/24 07:26:21;;;;;;;5.70;4.05;;;;;;;15.98;41.50;100299.44;4966559;28;124342;-77
2022/04/24 07:28:48;;;;;;;8.20;4.90;;;;;;;16.10;41.40;100308.34;4968999;28;123886;-77
2022/04/24 07:31:18;;;;;;;5.82;4.47;;;;;;;16.21;41.24;100310.19;4970708;28;119716;-78
2022/04/24 07:33:45;;;;;;;6.28;4.47;;;;;;;16.32;41.08;100312.88;4972081;28;117052;-78
2022/04/24 07:36:12;;;;;;;6.88;4.63;;;;;;;16.45;40.87;100318.97;4968552;28;124045;-78
2022/04/24 07:38:39;;;;;;;8.85;4.68;;;;;;;16.55;40.77;100311.91;4965373;28;123646;-78
2022/04/24 07:41:06;;;;;;;6.47;4.60;;;;;;;16.69;40.43;100320.69;4982850;28;118460;-77
2022/04/24 07:43:33;;;;;;;6.18;4.53;;;;;;;16.76;40.20;100311.19;4968479;28;119273;-76
2022/04/24 07:46:00;;;;;;;8.52;4.93;;;;;;;16.82;40.02;100316.09;4966850;28;124075;-77
2022/04/24 07:48:28;;;;;;;7.18;4.50;;;;;;;16.91;40.15;100312.69;4982593;28;122199;-77
2022/04/24 07:50:55;;;;;;;7.88;4.70;;;;;;;17.00;39.61;100303.06;4967470;28;119108;-77
2022/04/24 07:53:22;;;;;;;8.82;4.75;;;;;;;17.08;39.70;100310.47;4967694;28;118267;-78
2022/04/24 07:55:50;;;;;;;7.93;5.35;;;;;;;17.16;39.51;100308.03;4967900;28;123873;-78
2022/04/24 07:58:19;;;;;;;5.55;4.40;;;;;;;17.24;39.62;100310.09;4968440;28;124497;-77
2022/04/24 08:00:47;;;;;;;5.88;4.32;;;;;;;17.34;39.23;100299.47;4949738;28;118660;-77
2022/04/24 08:03:15;;;;;;;6.55;4.72;;;;;;;17.42;38.97;100302.34;4969574;28;118800;-77
2022/04/24 08:05:46;;;;;;;6.43;4.90;;;;;;;17.50;39.15;100299.91;4968763;28;124323;-77
2022/04/24 08:08:15;;;;;;;6.32;4.65;;;;;;;17.61;39.00;100312.38;4969405;28;123865;-77
2022/04/24 08:10:47;;;;;;;6.40;4.82;;;;;;;17.71;38.93;100316.88;4983113;28;120441;-77
2022/04/24 08:13:14;;;;;;;6.45;4.78;;;;;;;17.81;39.07;100313.41;4968093;28;120265;-77
2022/04/24 08:15:42;;;;;;;7.15;5.15;;;;;;;17.91;38.69;100322.41;4984465;28;122971;-77
2022/04/24 08:18:10;;;;;;;6.38;4.65;;;;;;;17.99;38.39;100317.25;4969256;28;123627;-77
2022/04/24 08:20:39;;;;;;;8.13;5.45;;;;;;;18.04;37.89;100320.38;4966673;28;118859;-77
2022/04/24 08:23:07;;;;;;;6.53;5.30;;;;;;;18.09;37.83;100318.16;4969699;28;118870;-76
2022/04/24 08:25:35;;;;;;;6.40;4.82;;;;;;;18.13;37.85;100312.56;4972477;28;123882;-77
2022/04/24 08:28:06;;;;;;;7.63;4.95;;;;;;;18.18;37.62;100321.91;4970040;28;122808;-77
2022/04/24 08:30:39;;;;;;;6.43;4.70;;;;;;;18.23;37.54;100324.16;4969286;28;118734;-78
2022/04/24 08:33:07;;;;;;;7.28;5.65;;;;;;;18.30;37.39;100314.63;4986020;28;119572;-77
2022/04/24 08:35:34;;;;;;;7.68;5.20;;;;;;;18.35;37.32;100323.13;4968427;28;124456;-77
2022/04/24 08:38:02;;;;;;;6.95;5.00;;;;;;;18.38;37.01;100309.44;4970279;28;124446;-77
2022/04/24 08:40:29;;;;;;;7.05;4.82;;;;;;;18.41;37.12;100322.59;4967878;28;118818;-78
2022/04/24 08:42:57;;;;;;;6.95;4.93;;;;;;;18.43;36.94;100323.31;4970491;28;118887;-78
2022/04/24 08:45:26;;;;;;;6.45;5.13;;;;;;;18.47;36.73;100316.69;4971139;28;124365;-77
2022/04/24 08:47:55;;;;;;;7.05;5.03;;;;;;;18.53;36.94;100319.84;4970791;28;124477;-77
2022/04/24 08:50:26;;;;;;;8.05;5.50;;;;;;;18.57;36.66;100321.25;4968960;28;118625;-77
2022/04/24 08:52:55;;;;;;;7.55;4.88;;;;;;;18.60;36.73;100321.00;4970834;28;119515;-78
2022/04/24 08:55:24;;;;;;;8.90;5.65;;;;;;;18.65;36.70;100329.50;4969866;28;124030;-77
2022/04/24 08:57:52;;;;;;;7.45;5.40;;;;;;;18.73;36.80;100326.16;4970002;28;125601;-77
2022/04/24 09:00:20;;;;;;;8.38;5.20;;;;;;;18.82;36.74;100326.22;4968974;28;120096;-77
2022/04/24 09:02:50;;;;;;;7.18;5.60;;;;;;;18.95;36.83;100325.13;4970463;28;120905;-77
2022/04/24 09:05:18;;;;;;;6.80;5.40;;;;;;;19.01;36.28;100332.66;4970504;28;123773;-77
2022/04/24 09:07:46;;;;;;;8.18;4.97;;;;;;;19.06;36.44;100333.06;4986708;28;124127;-77
2022/04/24 09:10:50;;;;;;;7.00;5.35;;;;;;;19.16;36.62;100328.59;4975247;28;118953;-77
2022/04/24 09:16:49;;;;;;;7.40;4.97;;;;;;;19.31;36.46;100338.91;4975295;28;123602;-77
2022/04/24 09:19:20;;;;;;;7.82;5.38;;;;;;;19.37;35.94;100331.16;4959855;28;122223;-76
2022/04/24 09:21:52;;;;;;;7.88;5.82;;;;;;;19.42;35.47;100338.78;4967335;28;119113;-76
2022/04/24 09:24:20;;;;;;;7.60;5.55;;;;;;;19.47;35.84;100331.19;4984916;28;117969;-77
2022/04/24 09:26:55;;;;;;;8.82;5.75;;;;;;;19.55;35.80;100335.84;4984320;28;123056;-77
2022/04/24 09:29:23;;;;;;;8.27;5.88;;;;;;;19.62;35.97;100329.78;4968613;28;123886;-76
2022/04/24 09:31:51;;;;;;;7.43;5.65;;;;;;;19.69;35.61;100318.50;4969550;28;118155;-78
2022/04/24 09:34:20;;;;;;;7.60;5.70;;;;;;;19.75;35.31;100328.69;4966949;28;119212;-77
2022/04/24 09:37:02;;;;;;;8.35;5.97;;;;;;;19.82;35.12;100324.47;4969067;28;124683;-77
2022/04/24 09:39:35;;;;;;;7.63;5.80;;;;;;;19.88;35.26;100323.88;4968510;28;123709;-77
2022/04/24 09:42:07;;;;;;;9.48;5.78;;;;;;;19.95;34.86;100325.03;4968567;28;120177;-77
2022/04/24 09:44:41;;;;;;;7.38;5.50;;;;;;;19.98;35.27;100327.41;4967959;28;118005;-77
2022/04/24 09:47:28;;;;;;;8.68;5.95;;;;;;;20.01;34.56;100329.81;4968094;28;123916;-76
2022/04/24 09:49:59;;;;;;;7.97;6.20;;;;;;;20.06;34.66;100325.84;4968271;28;123401;-77
2022/04/24 09:52:31;;;;;;;8.18;5.40;;;;;;;20.12;34.42;100330.66;4981056;28;120753;-76
2022/04/24 09:54:58;;;;;;;9.63;5.43;;;;;;;20.17;34.42;100329.25;4968736;28;119775;-76
2022/04/24 09:57:25;;;;;;;7.80;5.45;;;;;;;20.22;34.11;100323.41;4983617;28;125022;-76
2022/04/24 09:59:53;;;;;;;7.50;5.63;;;;;;;20.26;33.94;100326.69;4983128;28;123899;-78
2022/04/24 10:02:20;;;;;;;8.40;5.50;;;;;;;20.33;34.03;100334.00;4969023;28;119974;-77
2022/04/24 10:04:48;;;;;;;6.97;5.53;;;;;;;20.37;33.61;100330.03;4969216;28;118742;-75
2022/04/24 10:07:17;;;;;;;7.20;5.40;;;;;;;20.42;33.88;100322.38;4972522;28;123621;-77
2022/04/24 10:09:46;;;;;;;6.10;5.30;;;;;;;20.50;33.47;100328.88;4975044;28;123970;-76
2022/04/24 10:12:18;;;;;;;9.38;5.43;;;;;;;20.55;33.59;100326.59;4979571;28;118119;-76
2022/04/24 10:14:52;;;;;;;6.57;5.43;;;;;;;20.61;32.82;100326.06;4973143;28;118426;-76
2022/04/24 10:17:47;;;;;;;7.72;5.57;;;;;;;20.63;32.74;100324.06;4961422;28;122461;-76
2022/04/24 10:20:46;;;;;;;7.43;5.53;;;;;;;20.63;32.77;100324.06;4975577;28;124583;-77
2022/04/24 10:23:13;;;;;;;7.35;5.35;;;;;;;20.66;33.21;100322.91;4978448;28;118365;-77
2022/04/24 10:25:43;;;;;;;7.07;5.35;;;;;;;20.74;33.38;100323.03;4973014;28;120244;-77
2022/04/24 10:28:16;;;;;;;7.00;5.13;;;;;;;20.83;33.42;100323.97;4974476;28;126129;-77
2022/04/24 10:30:57;;;;;;;6.43;4.68;;;;;;;20.93;33.41;100325.63;4992231;28;123961;-76
2022/04/24 10:33:29;;;;;;;6.25;4.85;;;;;;;21.03;33.01;100330.97;4982847;28;119175;-76
2022/04/24 10:35:59;;;;;;;7.78;5.28;;;;;;;21.09;32.29;100335.75;4976061;28;119158;-76
2022/04/24 10:38:29;;;;;;;6.30;4.95;;;;;;;21.11;32.33;100325.66;4972592;28;124218;-76
2022/04/24 10:41:03;;;;;;;5.93;4.90;;;;;;;21.12;32.03;100319.28;4974170;28;123967;-78
2022/04/24 10:44:12;;;;;;;7.18;4.80;;;;;;;21.13;32.43;100315.59;4958166;28;119535;-77
2022/04/24 10:46:41;;;;;;;7.50;5.40;;;;;;;21.22;32.62;100329.16;4970665;28;119022;-77
2022/04/24 10:49:14;;;;;;;6.93;5.03;;;;;;;21.31;32.46;100317.50;4970127;28;123728;-77
2022/04/24 10:51:43;;;;;;;7.70;5.70;;;;;;;21.40;32.45;100316.56;4972188;28;123972;-77
2022/04/24 10:54:13;;;;;;;8.82;5.63;;;;;;;21.45;32.37;100325.06;4997209;28;118472;-78
2022/04/24 10:56:43;;;;;;;11.80;5.43;;;;;;;21.46;32.23;100324.06;4984323;28;118913;-77
2022/04/24 10:59:13;;;;;;;7.32;5.15;;;;;;;21.48;32.13;100319.38;4981492;28;123546;-78
2022/04/24 11:01:48;;;;;;;7.38;4.80;;;;;;;21.53;32.24;100322.47;4998140;28;122378;-76
2022/04/24 11:04:17;;;;;;;9.20;5.38;;;;;;;21.62;31.58;100319.84;4975530;28;118952;-77
2022/04/24 11:07:04;;;;;;;8.20;5.07;;;;;;;21.64;31.59;100323.22;4981208;28;118853;-77
2022/04/24 11:09:33;;;;;;;6.07;4.55;;;;;;;21.69;31.39;100327.16;4991420;28;124598;-77
2022/04/24 11:12:04;;;;;;;6.70;4.82;;;;;;;21.74;30.76;100318.63;4953937;28;123012;-77
2022/04/24 11:14:31;;;;;;;6.28;4.68;;;;;;;21.77;30.18;100323.69;4972940;28;119113;-78
2022/04/24 11:17:00;;;;;;;5.10;4.45;;;;;;;21.76;30.25;100311.22;4979225;28;119056;-76
2022/04/24 11:19:30;;;;;;;5.68;4.57;;;;;;;21.80;30.00;100318.00;4978491;28;124969;-77
2022/04/24 11:22:07;;;;;;;5.55;4.40;;;;;;;21.83;30.45;100312.31;4983970;28;124696;-77
2022/04/24 11:24:38;;;;;;;5.75;4.30;;;;;;;21.90;30.48;100312.50;4975038;28;119402;-76
2022/04/24 11:27:11;;;;;;;6.90;4.70;;;;;;;21.97;30.65;100317.13;4975815;28;119102;-77
2022/04/24 11:29:39;;;;;;;6.68;4.63;;;;;;;22.06;30.52;100311.81;4987929;28;124200;-78